sensor_id;sensor_type;location;lat;lon;timestamp;P1;durP1;ratioP1;P2;durP2;ratioP2
67074;SDS011;53990;50.334;18.640;2023-04-03T00:01:19;20.40;;;15.10;;
67074;SDS011;53990;50.334;18.640;2023-04-03T00:03:47;16.80;;;13.50;;
67074;SDS011;53990;50.334;18.640;2023-04-03T00:06:14;18.30;;;13.80;;
67074;SDS011;53990;50.334;18.640;2023-04-03T00:08:41;18.00;;;13.10;;
67074;SDS011;53990;50.334;18.640;2023-04-03T00:11:09;19.20;;;13.60;;
67074;SDS011;53990;50.334;18.640;2023-04-03T00:13:38;17.40;;;13.10;;
67074;SDS011;53990;50.334;18.640;2023-04-03T00:16:07;18.50;;;14.20;;
67074;SDS011;53990;50.334;18.640;2023-04-03T00:18:36;21.60;;;14.00;;
67074;SDS011;53990;50.334;18.640;2023-04-03T00:21:04;15.70;;;12.80;;
67074;SDS011;53990;50.334;18.640;2023-04-03T00:23:33;18.10;;;12.60;;
67074;SDS011;53990;50.334;18.640;2023-04-03T00:26:00;18.10;;;12.80;;
67074;SDS011;53990;50.334;18.640;2023-04-03T00:28:28;16.40;;;12.50;;
67074;SDS011;53990;50.334;18.640;2023-04-03T00:30:55;17.40;;;12.10;;
67074;SDS011;53990;50.334;18.640;2023-04-03T00:33:22;15.20;;;11.30;;
67074;SDS011;53990;50.334;18.640;2023-04-03T00:35:51;14.60;;;11.00;;
67074;SDS011;53990;50.334;18.640;2023-04-03T00:38:18;17.30;;;11.20;;
67074;SDS011;53990;50.334;18.640;2023-04-03T00:40:47;16.00;;;11.00;;
67074;SDS011;53990;50.334;18.640;2023-04-03T00:43:23;12.80;;;10.00;;
67074;SDS011;53990;50.334;18.640;2023-04-03T00:45:55;16.40;;;10.50;;
67074;SDS011;53990;50.334;18.640;2023-04-03T00:48:28;17.30;;;10.60;;
67074;SDS011;53990;50.334;18.640;2023-04-03T00:50:57;16.00;;;10.30;;
67074;SDS011;53990;50.334;18.640;2023-04-03T00:53:37;17.10;;;9.60;;
67074;SDS011;53990;50.334;18.640;2023-04-03T00:56:06;15.20;;;9.40;;
67074;SDS011;53990;50.334;18.640;2023-04-03T00:58:48;12.70;;;8.90;;
67074;SDS011;53990;50.334;18.640;2023-04-03T01:01:21;13.90;;;8.90;;
67074;SDS011;53990;50.334;18.640;2023-04-03T01:03:49;11.00;;;7.40;;
67074;SDS011;53990;50.334;18.640;2023-04-03T01:06:20;16.10;;;7.80;;
67074;SDS011;53990;50.334;18.640;2023-04-03T01:08:49;12.30;;;7.40;;
67074;SDS011;53990;50.334;18.640;2023-04-03T01:11:17;12.80;;;7.40;;
67074;SDS011;53990;50.334;18.640;2023-04-03T01:13:44;19.10;;;7.00;;
67074;SDS011;53990;50.334;18.640;2023-04-03T01:16:12;14.80;;;7.00;;
67074;SDS011;53990;50.334;18.640;2023-04-03T01:18:40;10.40;;;6.50;;
67074;SDS011;53990;50.334;18.640;2023-04-03T01:24:09;10.80;;;6.40;;
67074;SDS011;53990;50.334;18.640;2023-04-03T01:26:38;12.80;;;6.10;;
67074;SDS011;53990;50.334;18.640;2023-04-03T01:29:06;13.10;;;5.60;;
67074;SDS011;53990;50.334;18.640;2023-04-03T01:31:50;11.60;;;5.30;;
67074;SDS011;53990;50.334;18.640;2023-04-03T01:34:18;12.60;;;5.60;;
67074;SDS011;53990;50.334;18.640;2023-04-03T01:36:46;14.70;;;5.50;;
67074;SDS011;53990;50.334;18.640;2023-04-03T01:39:13;10.10;;;5.10;;
67074;SDS011;53990;50.334;18.640;2023-04-03T01:41:41;13.40;;;5.60;;
67074;SDS011;53990;50.334;18.640;2023-04-03T01:44:08;10.00;;;5.10;;
67074;SDS011;53990;50.334;18.640;2023-04-03T01:46:36;10.80;;;4.80;;
67074;SDS011;53990;50.334;18.640;2023-04-03T01:49:04;9.40;;;4.90;;
67074;SDS011;53990;50.334;18.640;2023-04-03T01:51:32;11.60;;;4.70;;
67074;SDS011;53990;50.334;18.640;2023-04-03T01:54:00;16.30;;;6.00;;
67074;SDS011;53990;50.334;18.640;2023-04-03T01:56:27;13.80;;;5.00;;
67074;SDS011;53990;50.334;18.640;2023-04-03T01:58:54;10.70;;;4.40;;
67074;SDS011;53990;50.334;18.640;2023-04-03T02:01:22;11.50;;;4.90;;
67074;SDS011;53990;50.334;18.640;2023-04-03T02:03:50;12.90;;;5.60;;
67074;SDS011;53990;50.334;18.640;2023-04-03T02:06:17;9.90;;;4.60;;
67074;SDS011;53990;50.334;18.640;2023-04-03T02:08:44;14.20;;;5.10;;
67074;SDS011;53990;50.334;18.640;2023-04-03T02:11:11;9.40;;;4.50;;
67074;SDS011;53990;50.334;18.640;2023-04-03T02:13:39;10.40;;;4.80;;
67074;SDS011;53990;50.334;18.640;2023-04-03T02:16:08;10.00;;;4.70;;
67074;SDS011;53990;50.334;18.640;2023-04-03T02:18:37;11.50;;;5.10;;
67074;SDS011;53990;50.334;18.640;2023-04-03T02:21:04;11.20;;;4.70;;
67074;SDS011;53990;50.334;18.640;2023-04-03T02:23:33;12.10;;;4.40;;
67074;SDS011;53990;50.334;18.640;2023-04-03T02:26:07;15.40;;;4.70;;
67074;SDS011;53990;50.334;18.640;2023-04-03T02:28:35;12.30;;;5.10;;
67074;SDS011;53990;50.334;18.640;2023-04-03T02:31:03;10.40;;;4.30;;
67074;SDS011;53990;50.334;18.640;2023-04-03T02:33:30;10.20;;;4.10;;
67074;SDS011;53990;50.334;18.640;2023-04-03T02:35:58;11.50;;;4.60;;
67074;SDS011;53990;50.334;18.640;2023-04-03T02:38:26;12.10;;;4.30;;
67074;SDS011;53990;50.334;18.640;2023-04-03T02:40:59;9.20;;;4.30;;
67074;SDS011;53990;50.334;18.640;2023-04-03T02:43:27;9.80;;;4.30;;
67074;SDS011;53990;50.334;18.640;2023-04-03T02:45:55;9.10;;;4.20;;
67074;SDS011;53990;50.334;18.640;2023-04-03T02:48:23;8.50;;;4.00;;
67074;SDS011;53990;50.334;18.640;2023-04-03T02:50:50;12.00;;;4.60;;
67074;SDS011;53990;50.334;18.640;2023-04-03T02:53:18;11.30;;;4.70;;
67074;SDS011;53990;50.334;18.640;2023-04-03T02:55:46;8.50;;;4.20;;
67074;SDS011;53990;50.334;18.640;2023-04-03T02:58:13;11.90;;;4.60;;
67074;SDS011;53990;50.334;18.640;2023-04-03T03:00:40;8.90;;;4.50;;
67074;SDS011;53990;50.334;18.640;2023-04-03T03:03:08;12.10;;;4.80;;
67074;SDS011;53990;50.334;18.640;2023-04-03T03:05:35;11.40;;;4.70;;
67074;SDS011;53990;50.334;18.640;2023-04-03T03:08:03;12.00;;;4.70;;
67074;SDS011;53990;50.334;18.640;2023-04-03T03:10:30;11.20;;;4.30;;
67074;SDS011;53990;50.334;18.640;2023-04-03T03:12:57;12.30;;;4.60;;
67074;SDS011;53990;50.334;18.640;2023-04-03T03:15:25;9.70;;;4.80;;
67074;SDS011;53990;50.334;18.640;2023-04-03T03:17:52;10.90;;;4.20;;
67074;SDS011;53990;50.334;18.640;2023-04-03T03:20:19;11.20;;;4.60;;
67074;SDS011;53990;50.334;18.640;2023-04-03T03:22:47;9.70;;;4.00;;
67074;SDS011;53990;50.334;18.640;2023-04-03T03:25:15;10.90;;;4.10;;
67074;SDS011;53990;50.334;18.640;2023-04-03T03:27:42;10.50;;;4.40;;
67074;SDS011;53990;50.334;18.640;2023-04-03T03:30:09;10.60;;;3.90;;
67074;SDS011;53990;50.334;18.640;2023-04-03T03:32:37;7.60;;;3.80;;
67074;SDS011;53990;50.334;18.640;2023-04-03T03:35:04;9.80;;;3.90;;
67074;SDS011;53990;50.334;18.640;2023-04-03T03:37:32;10.00;;;4.30;;
67074;SDS011;53990;50.334;18.640;2023-04-03T03:39:59;10.10;;;4.70;;
67074;SDS011;53990;50.334;18.640;2023-04-03T03:42:26;11.70;;;4.40;;
67074;SDS011;53990;50.334;18.640;2023-04-03T03:44:53;10.50;;;3.90;;
67074;SDS011;53990;50.334;18.640;2023-04-03T03:47:21;21.30;;;8.20;;
67074;SDS011;53990;50.334;18.640;2023-04-03T03:49:48;14.70;;;5.40;;
67074;SDS011;53990;50.334;18.640;2023-04-03T03:52:15;18.90;;;7.50;;
67074;SDS011;53990;50.334;18.640;2023-04-03T03:54:42;11.20;;;4.50;;
67074;SDS011;53990;50.334;18.640;2023-04-03T03:57:10;18.50;;;6.60;;
67074;SDS011;53990;50.334;18.640;2023-04-03T03:59:37;14.70;;;5.60;;
67074;SDS011;53990;50.334;18.640;2023-04-03T04:02:05;12.80;;;4.60;;
67074;SDS011;53990;50.334;18.640;2023-04-03T04:04:32;14.70;;;5.60;;
67074;SDS011;53990;50.334;18.640;2023-04-03T04:06:59;31.40;;;10.30;;
67074;SDS011;53990;50.334;18.640;2023-04-03T04:09:27;21.30;;;6.40;;
67074;SDS011;53990;50.334;18.640;2023-04-03T04:11:54;16.60;;;5.80;;
67074;SDS011;53990;50.334;18.640;2023-04-03T04:14:22;13.90;;;4.90;;
67074;SDS011;53990;50.334;18.640;2023-04-03T04:16:49;15.30;;;5.70;;
67074;SDS011;53990;50.334;18.640;2023-04-03T04:19:16;9.50;;;4.30;;
67074;SDS011;53990;50.334;18.640;2023-04-03T04:21:44;16.30;;;5.70;;
67074;SDS011;53990;50.334;18.640;2023-04-03T04:24:11;15.30;;;5.40;;
67074;SDS011;53990;50.334;18.640;2023-04-03T04:26:38;9.90;;;3.90;;
67074;SDS011;53990;50.334;18.640;2023-04-03T04:29:06;15.60;;;5.60;;
67074;SDS011;53990;50.334;18.640;2023-04-03T04:31:33;12.90;;;4.70;;
67074;SDS011;53990;50.334;18.640;2023-04-03T04:34:00;11.30;;;5.00;;
67074;SDS011;53990;50.334;18.640;2023-04-03T04:36:27;12.90;;;5.40;;
67074;SDS011;53990;50.334;18.640;2023-04-03T04:38:55;17.60;;;6.90;;
67074;SDS011;53990;50.334;18.640;2023-04-03T04:41:22;13.50;;;4.90;;
67074;SDS011;53990;50.334;18.640;2023-04-03T04:43:50;10.30;;;4.50;;
67074;SDS011;53990;50.334;18.640;2023-04-03T04:46:18;12.80;;;5.60;;
67074;SDS011;53990;50.334;18.640;2023-04-03T04:48:45;10.60;;;4.80;;
67074;SDS011;53990;50.334;18.640;2023-04-03T04:51:13;11.00;;;4.80;;
67074;SDS011;53990;50.334;18.640;2023-04-03T04:53:41;12.70;;;4.80;;
67074;SDS011;53990;50.334;18.640;2023-04-03T04:56:08;11.60;;;4.70;;
67074;SDS011;53990;50.334;18.640;2023-04-03T04:58:36;15.30;;;4.50;;
67074;SDS011;53990;50.334;18.640;2023-04-03T05:01:06;15.00;;;5.50;;
67074;SDS011;53990;50.334;18.640;2023-04-03T05:03:34;10.40;;;5.10;;
67074;SDS011;53990;50.334;18.640;2023-04-03T05:06:01;11.70;;;4.70;;
67074;SDS011;53990;50.334;18.640;2023-04-03T05:08:29;11.60;;;5.20;;
67074;SDS011;53990;50.334;18.640;2023-04-03T05:10:56;11.40;;;4.50;;
67074;SDS011;53990;50.334;18.640;2023-04-03T05:13:24;14.20;;;4.90;;
67074;SDS011;53990;50.334;18.640;2023-04-03T05:15:51;10.10;;;4.40;;
67074;SDS011;53990;50.334;18.640;2023-04-03T05:18:19;12.80;;;4.60;;
67074;SDS011;53990;50.334;18.640;2023-04-03T05:20:48;10.40;;;4.30;;
67074;SDS011;53990;50.334;18.640;2023-04-03T05:23:16;12.90;;;5.30;;
67074;SDS011;53990;50.334;18.640;2023-04-03T05:25:43;12.00;;;4.30;;
67074;SDS011;53990;50.334;18.640;2023-04-03T05:28:12;9.40;;;4.10;;
67074;SDS011;53990;50.334;18.640;2023-04-03T05:30:40;13.30;;;5.40;;
67074;SDS011;53990;50.334;18.640;2023-04-03T05:33:07;10.50;;;4.30;;
67074;SDS011;53990;50.334;18.640;2023-04-03T05:35:36;13.30;;;4.70;;
67074;SDS011;53990;50.334;18.640;2023-04-03T05:38:07;10.50;;;4.30;;
67074;SDS011;53990;50.334;18.640;2023-04-03T05:40:34;9.00;;;4.50;;
67074;SDS011;53990;50.334;18.640;2023-04-03T05:43:02;11.60;;;4.60;;
67074;SDS011;53990;50.334;18.640;2023-04-03T05:45:29;11.50;;;4.40;;
67074;SDS011;53990;50.334;18.640;2023-04-03T05:47:56;9.10;;;4.60;;
67074;SDS011;53990;50.334;18.640;2023-04-03T05:50:24;11.70;;;5.30;;
67074;SDS011;53990;50.334;18.640;2023-04-03T05:52:52;11.30;;;4.50;;
67074;SDS011;53990;50.334;18.640;2023-04-03T05:55:22;12.40;;;4.70;;
67074;SDS011;53990;50.334;18.640;2023-04-03T05:57:49;9.90;;;4.50;;
67074;SDS011;53990;50.334;18.640;2023-04-03T06:00:17;12.20;;;4.90;;
67074;SDS011;53990;50.334;18.640;2023-04-03T06:02:44;11.00;;;5.00;;
67074;SDS011;53990;50.334;18.640;2023-04-03T06:05:12;11.10;;;4.50;;
67074;SDS011;53990;50.334;18.640;2023-04-03T06:07:40;11.10;;;5.00;;
67074;SDS011;53990;50.334;18.640;2023-04-03T06:10:08;13.20;;;5.40;;
67074;SDS011;53990;50.334;18.640;2023-04-03T06:12:35;10.50;;;4.30;;
67074;SDS011;53990;50.334;18.640;2023-04-03T06:15:03;10.70;;;5.10;;
67074;SDS011;53990;50.334;18.640;2023-04-03T06:17:30;9.50;;;4.20;;
67074;SDS011;53990;50.334;18.640;2023-04-03T06:19:58;8.40;;;4.20;;
67074;SDS011;53990;50.334;18.640;2023-04-03T06:22:25;9.10;;;4.70;;
67074;SDS011;53990;50.334;18.640;2023-04-03T06:24:52;9.60;;;4.40;;
67074;SDS011;53990;50.334;18.640;2023-04-03T06:27:20;10.40;;;4.70;;
67074;SDS011;53990;50.334;18.640;2023-04-03T06:29:47;12.20;;;5.40;;
67074;SDS011;53990;50.334;18.640;2023-04-03T06:32:16;9.40;;;4.30;;
67074;SDS011;53990;50.334;18.640;2023-04-03T06:34:43;12.60;;;4.50;;
67074;SDS011;53990;50.334;18.640;2023-04-03T06:37:20;10.40;;;4.70;;
67074;SDS011;53990;50.334;18.640;2023-04-03T06:39:48;11.40;;;4.40;;
67074;SDS011;53990;50.334;18.640;2023-04-03T06:42:15;10.10;;;4.70;;
67074;SDS011;53990;50.334;18.640;2023-04-03T06:44:43;8.60;;;4.30;;
67074;SDS011;53990;50.334;18.640;2023-04-03T06:47:15;10.60;;;4.40;;
67074;SDS011;53990;50.334;18.640;2023-04-03T06:49:43;10.20;;;4.20;;
67074;SDS011;53990;50.334;18.640;2023-04-03T06:52:11;11.80;;;4.50;;
67074;SDS011;53990;50.334;18.640;2023-04-03T06:54:41;10.40;;;4.80;;
67074;SDS011;53990;50.334;18.640;2023-04-03T06:57:08;12.10;;;5.20;;
67074;SDS011;53990;50.334;18.640;2023-04-03T06:59:36;12.40;;;4.50;;
67074;SDS011;53990;50.334;18.640;2023-04-03T07:02:03;11.60;;;5.00;;
67074;SDS011;53990;50.334;18.640;2023-04-03T07:04:31;10.30;;;4.80;;
67074;SDS011;53990;50.334;18.640;2023-04-03T07:06:58;13.00;;;4.50;;
67074;SDS011;53990;50.334;18.640;2023-04-03T07:09:26;11.20;;;4.60;;
67074;SDS011;53990;50.334;18.640;2023-04-03T07:11:53;8.50;;;5.00;;
67074;SDS011;53990;50.334;18.640;2023-04-03T07:14:20;11.00;;;4.70;;
67074;SDS011;53990;50.334;18.640;2023-04-03T07:16:48;12.30;;;5.00;;
67074;SDS011;53990;50.334;18.640;2023-04-03T07:19:15;10.10;;;5.00;;
67074;SDS011;53990;50.334;18.640;2023-04-03T07:21:42;8.80;;;4.70;;
67074;SDS011;53990;50.334;18.640;2023-04-03T07:24:11;9.10;;;5.20;;
67074;SDS011;53990;50.334;18.640;2023-04-03T07:26:38;8.20;;;4.60;;
67074;SDS011;53990;50.334;18.640;2023-04-03T07:29:05;9.90;;;4.80;;
67074;SDS011;53990;50.334;18.640;2023-04-03T07:31:33;8.80;;;4.30;;
67074;SDS011;53990;50.334;18.640;2023-04-03T07:34:00;9.30;;;4.60;;
67074;SDS011;53990;50.334;18.640;2023-04-03T07:36:28;9.40;;;4.90;;
67074;SDS011;53990;50.334;18.640;2023-04-03T07:38:56;11.40;;;4.80;;
67074;SDS011;53990;50.334;18.640;2023-04-03T07:41:23;10.30;;;4.40;;
67074;SDS011;53990;50.334;18.640;2023-04-03T07:43:50;11.70;;;4.90;;
67074;SDS011;53990;50.334;18.640;2023-04-03T07:46:19;10.20;;;5.20;;
67074;SDS011;53990;50.334;18.640;2023-04-03T07:48:47;10.70;;;4.50;;
67074;SDS011;53990;50.334;18.640;2023-04-03T07:51:14;8.80;;;4.70;;
67074;SDS011;53990;50.334;18.640;2023-04-03T07:53:42;10.10;;;4.30;;
67074;SDS011;53990;50.334;18.640;2023-04-03T07:56:09;10.90;;;4.50;;
67074;SDS011;53990;50.334;18.640;2023-04-03T07:58:36;9.50;;;4.20;;
67074;SDS011;53990;50.334;18.640;2023-04-03T08:01:04;10.40;;;4.20;;
67074;SDS011;53990;50.334;18.640;2023-04-03T08:03:31;9.40;;;4.70;;
67074;SDS011;53990;50.334;18.640;2023-04-03T08:06:03;9.40;;;4.40;;
67074;SDS011;53990;50.334;18.640;2023-04-03T08:08:31;7.80;;;4.30;;
67074;SDS011;53990;50.334;18.640;2023-04-03T08:11:00;7.90;;;4.10;;
67074;SDS011;53990;50.334;18.640;2023-04-03T08:13:30;9.10;;;4.30;;
67074;SDS011;53990;50.334;18.640;2023-04-03T08:15:57;7.60;;;3.90;;
67074;SDS011;53990;50.334;18.640;2023-04-03T08:18:26;9.10;;;4.60;;
67074;SDS011;53990;50.334;18.640;2023-04-03T08:20:53;7.30;;;3.20;;
67074;SDS011;53990;50.334;18.640;2023-04-03T08:23:20;8.20;;;2.60;;
67074;SDS011;53990;50.334;18.640;2023-04-03T08:25:48;6.60;;;2.20;;
67074;SDS011;53990;50.334;18.640;2023-04-03T08:28:15;7.00;;;2.40;;
67074;SDS011;53990;50.334;18.640;2023-04-03T08:30:43;5.20;;;2.10;;
67074;SDS011;53990;50.334;18.640;2023-04-03T08:33:10;6.00;;;2.40;;
67074;SDS011;53990;50.334;18.640;2023-04-03T08:35:39;5.70;;;2.20;;
67074;SDS011;53990;50.334;18.640;2023-04-03T08:38:09;5.00;;;2.20;;
67074;SDS011;53990;50.334;18.640;2023-04-03T08:40:38;4.80;;;2.10;;
67074;SDS011;53990;50.334;18.640;2023-04-03T08:43:33;7.90;;;2.10;;
67074;SDS011;53990;50.334;18.640;2023-04-03T08:46:05;5.30;;;2.70;;
67074;SDS011;53990;50.334;18.640;2023-04-03T08:48:35;4.60;;;2.20;;
67074;SDS011;53990;50.334;18.640;2023-04-03T08:51:16;5.20;;;2.10;;
67074;SDS011;53990;50.334;18.640;2023-04-03T08:53:58;5.40;;;2.20;;
67074;SDS011;53990;50.334;18.640;2023-04-03T08:56:28;5.20;;;2.30;;
67074;SDS011;53990;50.334;18.640;2023-04-03T08:58:59;5.30;;;2.10;;
67074;SDS011;53990;50.334;18.640;2023-04-03T09:01:39;5.80;;;1.90;;
67074;SDS011;53990;50.334;18.640;2023-04-03T09:04:12;5.80;;;2.30;;
67074;SDS011;53990;50.334;18.640;2023-04-03T09:06:44;4.50;;;2.00;;
67074;SDS011;53990;50.334;18.640;2023-04-03T09:09:32;5.80;;;2.40;;
67074;SDS011;53990;50.334;18.640;2023-04-03T09:12:38;4.40;;;2.10;;
67074;SDS011;53990;50.334;18.640;2023-04-03T09:18:06;6.90;;;2.90;;
67074;SDS011;53990;50.334;18.640;2023-04-03T09:23:29;6.70;;;2.80;;
67074;SDS011;53990;50.334;18.640;2023-04-03T09:26:05;7.40;;;2.90;;
67074;SDS011;53990;50.334;18.640;2023-04-03T09:28:39;4.70;;;2.60;;
67074;SDS011;53990;50.334;18.640;2023-04-03T09:31:20;5.30;;;2.00;;
67074;SDS011;53990;50.334;18.640;2023-04-03T09:34:03;5.90;;;2.30;;
67074;SDS011;53990;50.334;18.640;2023-04-03T09:36:51;5.20;;;2.00;;
67074;SDS011;53990;50.334;18.640;2023-04-03T09:39:22;4.40;;;2.20;;
67074;SDS011;53990;50.334;18.640;2023-04-03T09:41:59;4.90;;;1.90;;
67074;SDS011;53990;50.334;18.640;2023-04-03T09:44:36;6.00;;;2.20;;
67074;SDS011;53990;50.334;18.640;2023-04-03T09:52:41;5.80;;;2.20;;
67074;SDS011;53990;50.334;18.640;2023-04-03T09:55:26;5.30;;;2.60;;
67074;SDS011;53990;50.334;18.640;2023-04-03T09:57:59;4.50;;;2.30;;
67074;SDS011;53990;50.334;18.640;2023-04-03T10:00:28;5.00;;;2.30;;
67074;SDS011;53990;50.334;18.640;2023-04-03T10:02:58;5.60;;;2.20;;
67074;SDS011;53990;50.334;18.640;2023-04-03T10:05:33;4.10;;;2.20;;
67074;SDS011;53990;50.334;18.640;2023-04-03T10:10:39;5.60;;;2.30;;
67074;SDS011;53990;50.334;18.640;2023-04-03T10:13:11;5.50;;;2.50;;
67074;SDS011;53990;50.334;18.640;2023-04-03T10:15:48;4.50;;;2.50;;
67074;SDS011;53990;50.334;18.640;2023-04-03T10:20:54;5.20;;;2.10;;
67074;SDS011;53990;50.334;18.640;2023-04-03T10:23:41;5.50;;;2.40;;
67074;SDS011;53990;50.334;18.640;2023-04-03T10:33:56;6.00;;;2.30;;
67074;SDS011;53990;50.334;18.640;2023-04-03T10:44:30;4.50;;;2.40;;
67074;SDS011;53990;50.334;18.640;2023-04-03T10:49:50;6.30;;;2.70;;
67074;SDS011;53990;50.334;18.640;2023-04-03T10:52:22;7.70;;;3.10;;
67074;SDS011;53990;50.334;18.640;2023-04-03T10:57:40;5.90;;;2.70;;
67074;SDS011;53990;50.334;18.640;2023-04-03T11:00:34;5.20;;;2.40;;
67074;SDS011;53990;50.334;18.640;2023-04-03T11:03:08;8.70;;;2.80;;
67074;SDS011;53990;50.334;18.640;2023-04-03T11:05:44;4.90;;;2.70;;
67074;SDS011;53990;50.334;18.640;2023-04-03T11:08:30;7.10;;;3.20;;
67074;SDS011;53990;50.334;18.640;2023-04-03T11:11:09;7.80;;;3.30;;
67074;SDS011;53990;50.334;18.640;2023-04-03T11:13:43;6.60;;;2.90;;
67074;SDS011;53990;50.334;18.640;2023-04-03T11:16:23;4.40;;;2.80;;
67074;SDS011;53990;50.334;18.640;2023-04-03T11:18:56;5.90;;;2.50;;
67074;SDS011;53990;50.334;18.640;2023-04-03T11:21:33;6.80;;;3.10;;
67074;SDS011;53990;50.334;18.640;2023-04-03T11:24:05;5.80;;;2.50;;
67074;SDS011;53990;50.334;18.640;2023-04-03T11:26:40;6.90;;;2.40;;
67074;SDS011;53990;50.334;18.640;2023-04-03T11:29:15;5.30;;;2.50;;
67074;SDS011;53990;50.334;18.640;2023-04-03T11:37:01;5.70;;;2.50;;
67074;SDS011;53990;50.334;18.640;2023-04-03T11:39:38;3.60;;;1.80;;
67074;SDS011;53990;50.334;18.640;2023-04-03T11:42:19;4.00;;;2.30;;
67074;SDS011;53990;50.334;18.640;2023-04-03T11:50:41;4.10;;;2.50;;
67074;SDS011;53990;50.334;18.640;2023-04-03T11:55:57;5.00;;;2.90;;
67074;SDS011;53990;50.334;18.640;2023-04-03T11:58:32;4.40;;;2.60;;
67074;SDS011;53990;50.334;18.640;2023-04-03T12:01:06;5.30;;;2.90;;
67074;SDS011;53990;50.334;18.640;2023-04-03T12:08:44;4.80;;;2.80;;
67074;SDS011;53990;50.334;18.640;2023-04-03T12:16:29;4.20;;;2.30;;
67074;SDS011;53990;50.334;18.640;2023-04-03T12:26:32;4.30;;;2.60;;
67074;SDS011;53990;50.334;18.640;2023-04-03T12:29:15;4.30;;;2.10;;
67074;SDS011;53990;50.334;18.640;2023-04-03T12:34:56;4.60;;;2.70;;
67074;SDS011;53990;50.334;18.640;2023-04-03T12:48:29;5.40;;;2.60;;
67074;SDS011;53990;50.334;18.640;2023-04-03T12:50:58;5.90;;;2.30;;
67074;SDS011;53990;50.334;18.640;2023-04-03T12:53:28;5.00;;;2.50;;
67074;SDS011;53990;50.334;18.640;2023-04-03T12:58:52;5.20;;;2.80;;
67074;SDS011;53990;50.334;18.640;2023-04-03T13:01:25;4.30;;;2.90;;
67074;SDS011;53990;50.334;18.640;2023-04-03T13:03:56;5.90;;;3.10;;
67074;SDS011;53990;50.334;18.640;2023-04-03T13:06:29;4.80;;;2.80;;
67074;SDS011;53990;50.334;18.640;2023-04-03T13:09:00;4.30;;;3.00;;
67074;SDS011;53990;50.334;18.640;2023-04-03T13:11:32;4.60;;;2.50;;
67074;SDS011;53990;50.334;18.640;2023-04-03T13:14:05;4.60;;;2.70;;
67074;SDS011;53990;50.334;18.640;2023-04-03T13:16:40;3.70;;;2.70;;
67074;SDS011;53990;50.334;18.640;2023-04-03T13:19:16;5.30;;;2.50;;
67074;SDS011;53990;50.334;18.640;2023-04-03T13:21:44;4.20;;;2.50;;
67074;SDS011;53990;50.334;18.640;2023-04-03T13:24:12;4.20;;;2.50;;
67074;SDS011;53990;50.334;18.640;2023-04-03T13:26:39;4.40;;;2.70;;
67074;SDS011;53990;50.334;18.640;2023-04-03T13:29:20;5.10;;;2.90;;
67074;SDS011;53990;50.334;18.640;2023-04-03T13:31:52;5.90;;;4.20;;
67074;SDS011;53990;50.334;18.640;2023-04-03T13:34:21;4.60;;;2.90;;
67074;SDS011;53990;50.334;18.640;2023-04-03T13:41:48;4.40;;;2.70;;
67074;SDS011;53990;50.334;18.640;2023-04-03T13:46:52;5.00;;;2.50;;
67074;SDS011;53990;50.334;18.640;2023-04-03T13:51:57;5.10;;;2.80;;
67074;SDS011;53990;50.334;18.640;2023-04-03T13:54:37;4.50;;;2.90;;
67074;SDS011;53990;50.334;18.640;2023-04-03T13:57:15;9.00;;;5.40;;
67074;SDS011;53990;50.334;18.640;2023-04-03T13:59:43;5.60;;;3.30;;
67074;SDS011;53990;50.334;18.640;2023-04-03T14:02:32;4.30;;;2.90;;
67074;SDS011;53990;50.334;18.640;2023-04-03T14:05:01;4.50;;;2.40;;
67074;SDS011;53990;50.334;18.640;2023-04-03T14:07:30;5.10;;;2.80;;
67074;SDS011;53990;50.334;18.640;2023-04-03T14:09:58;4.70;;;2.30;;
67074;SDS011;53990;50.334;18.640;2023-04-03T14:12:38;5.20;;;2.80;;
67074;SDS011;53990;50.334;18.640;2023-04-03T14:15:20;3.40;;;2.50;;
67074;SDS011;53990;50.334;18.640;2023-04-03T14:17:51;5.60;;;2.90;;
67074;SDS011;53990;50.334;18.640;2023-04-03T14:20:21;4.90;;;2.80;;
67074;SDS011;53990;50.334;18.640;2023-04-03T14:22:49;4.90;;;3.00;;
67074;SDS011;53990;50.334;18.640;2023-04-03T14:25:18;8.20;;;4.10;;
67074;SDS011;53990;50.334;18.640;2023-04-03T14:27:48;4.00;;;2.70;;
67074;SDS011;53990;50.334;18.640;2023-04-03T14:30:28;6.60;;;3.20;;
67074;SDS011;53990;50.334;18.640;2023-04-03T14:32:56;5.80;;;3.10;;
67074;SDS011;53990;50.334;18.640;2023-04-03T14:35:24;5.70;;;3.40;;
67074;SDS011;53990;50.334;18.640;2023-04-03T14:37:53;6.80;;;3.30;;
67074;SDS011;53990;50.334;18.640;2023-04-03T14:40:25;6.30;;;3.40;;
67074;SDS011;53990;50.334;18.640;2023-04-03T14:42:53;6.60;;;3.10;;
67074;SDS011;53990;50.334;18.640;2023-04-03T14:45:22;7.20;;;3.80;;
67074;SDS011;53990;50.334;18.640;2023-04-03T14:47:52;7.80;;;3.30;;
67074;SDS011;53990;50.334;18.640;2023-04-03T14:50:23;5.10;;;3.00;;
67074;SDS011;53990;50.334;18.640;2023-04-03T14:52:53;6.80;;;3.40;;
67074;SDS011;53990;50.334;18.640;2023-04-03T14:55:22;5.30;;;2.80;;
67074;SDS011;53990;50.334;18.640;2023-04-03T14:57:51;5.10;;;2.90;;
67074;SDS011;53990;50.334;18.640;2023-04-03T15:00:20;5.30;;;3.20;;
67074;SDS011;53990;50.334;18.640;2023-04-03T15:02:48;6.50;;;3.70;;
67074;SDS011;53990;50.334;18.640;2023-04-03T15:05:16;6.80;;;4.00;;
67074;SDS011;53990;50.334;18.640;2023-04-03T15:07:49;8.30;;;4.60;;
67074;SDS011;53990;50.334;18.640;2023-04-03T15:10:18;6.60;;;2.90;;
67074;SDS011;53990;50.334;18.640;2023-04-03T15:12:47;7.10;;;3.70;;
67074;SDS011;53990;50.334;18.640;2023-04-03T15:15:15;6.30;;;3.20;;
67074;SDS011;53990;50.334;18.640;2023-04-03T15:17:44;5.50;;;2.60;;
67074;SDS011;53990;50.334;18.640;2023-04-03T15:20:17;8.40;;;4.60;;
67074;SDS011;53990;50.334;18.640;2023-04-03T15:22:46;7.50;;;3.10;;
67074;SDS011;53990;50.334;18.640;2023-04-03T15:25:13;8.00;;;4.10;;
67074;SDS011;53990;50.334;18.640;2023-04-03T15:27:41;7.40;;;3.60;;
67074;SDS011;53990;50.334;18.640;2023-04-03T15:30:16;5.70;;;3.00;;
67074;SDS011;53990;50.334;18.640;2023-04-03T15:32:44;6.40;;;3.50;;
67074;SDS011;53990;50.334;18.640;2023-04-03T15:35:11;6.40;;;3.80;;
67074;SDS011;53990;50.334;18.640;2023-04-03T15:37:39;8.10;;;3.50;;
67074;SDS011;53990;50.334;18.640;2023-04-03T15:40:07;7.80;;;3.50;;
67074;SDS011;53990;50.334;18.640;2023-04-03T15:42:35;5.90;;;3.40;;
67074;SDS011;53990;50.334;18.640;2023-04-03T15:45:02;11.60;;;5.70;;
67074;SDS011;53990;50.334;18.640;2023-04-03T15:47:30;10.40;;;6.00;;
67074;SDS011;53990;50.334;18.640;2023-04-03T15:49:57;10.40;;;6.10;;
67074;SDS011;53990;50.334;18.640;2023-04-03T15:52:24;6.70;;;3.80;;
67074;SDS011;53990;50.334;18.640;2023-04-03T15:54:52;8.50;;;4.00;;
67074;SDS011;53990;50.334;18.640;2023-04-03T15:57:19;6.20;;;3.50;;
67074;SDS011;53990;50.334;18.640;2023-04-03T15:59:46;10.40;;;4.80;;
67074;SDS011;53990;50.334;18.640;2023-04-03T16:02:14;10.00;;;4.70;;
67074;SDS011;53990;50.334;18.640;2023-04-03T16:04:41;8.00;;;4.10;;
67074;SDS011;53990;50.334;18.640;2023-04-03T16:07:09;7.80;;;3.90;;
67074;SDS011;53990;50.334;18.640;2023-04-03T16:09:36;6.40;;;3.20;;
67074;SDS011;53990;50.334;18.640;2023-04-03T16:12:03;6.20;;;3.40;;
67074;SDS011;53990;50.334;18.640;2023-04-03T16:14:31;5.90;;;3.10;;
67074;SDS011;53990;50.334;18.640;2023-04-03T16:16:58;6.70;;;3.40;;
67074;SDS011;53990;50.334;18.640;2023-04-03T16:19:26;7.50;;;3.50;;
67074;SDS011;53990;50.334;18.640;2023-04-03T16:21:54;10.30;;;3.50;;
67074;SDS011;53990;50.334;18.640;2023-04-03T16:24:22;7.00;;;3.10;;